Time;durP1;ratioP1;P1;durP2;ratioP2;P2;SDS_P1;SDS_P2;PMS_P1;PMS_P2;Temp;Humidity;BMP_temperature;BMP_pressure;BME280_temperature;BME280_humidity;BME280_pressure;Samples;Min_cycle;Max_cycle;Signal;HPM_P1;HPM_P2
2023/09/25 00:00:33;;;;;;;3.67;2.50;;;;;;;-141.50;100.00;63355.56;5014240;28;20057;-84
2023/09/25 00:03:02;;;;;;;5.72;2.38;;;;;;;-141.50;100.00;63355.56;5013834;28;20064;-83
2023/09/25 00:05:33;;;;;;;3.50;2.15;;;;;;;-141.50;100.00;63355.56;5029629;28;20072;-84
2023/09/25 00:08:00;;;;;;;4.45;2.58;;;;;;;-141.50;100.00;63355.56;4995312;28;20045;-83
2023/09/25 00:10:29;;;;;;;3.92;2.33;;;;;;;-141.50;100.00;63355.56;5008704;28;20046;-83
2023/09/25 00:12:57;;;;;;;3.53;2.22;;;;;;;-141.50;100.00;63355.56;5012626;28;20459;-84
2023/09/25 00:15:25;;;;;;;3.17;1.90;;;;;;;-141.50;100.00;63355.56;5000622;28;20056;-83
2023/09/25 00:17:53;;;;;;;3.58;1.67;;;;;;;-141.50;100.00;63355.56;5026644;28;20187;-83
2023/09/25 00:20:24;;;;;;;2.55;1.77;;;;;;;-141.50;100.00;63355.56;5012969;28;20043;-84
2023/09/25 00:22:55;;;;;;;4.57;1.90;;;;;;;-141.50;100.00;63355.56;4995423;28;20048;-81
2023/09/25 00:25:32;;;;;;;3.47;2.13;;;;;;;-141.50;100.00;63355.56;5029498;28;20038;-83
2023/09/25 00:27:59;;;;;;;2.85;1.90;;;;;;;-141.50;100.00;63355.56;4998261;28;20113;-84
2023/09/25 00:30:26;;;;;;;5.15;2.15;;;;;;;-141.50;100.00;63355.56;5028473;28;20044;-83
2023/09/25 00:32:54;;;;;;;3.53;2.03;;;;;;;-141.50;100.00;63355.56;5011066;28;20060;-82
2023/09/25 00:35:22;;;;;;;4.50;2.22;;;;;;;-141.50;100.00;63355.56;4996643;28;20041;-82
2023/09/25 00:37:53;;;;;;;4.40;1.98;;;;;;;-141.50;100.00;63355.56;5015879;28;20103;-83
2023/09/25 00:40:55;;;;;;;2.97;2.03;;;;;;;-141.50;100.00;63355.56;5023422;28;20041;-82
2023/09/25 00:43:26;;;;;;;3.22;2.03;;;;;;;-141.50;100.00;63355.56;5022497;28;20041;-82
2023/09/25 00:46:05;;;;;;;3.15;1.73;;;;;;;-141.50;100.00;63355.56;4993560;28;20067;-84
2023/09/25 00:48:56;;;;;;;6.10;2.30;;;;;;;-141.50;100.00;63355.56;5031724;28;20041;-83
2023/09/25 00:51:44;;;;;;;5.93;2.30;;;;;;;-141.50;100.00;63355.56;4999448;28;20044;-83
2023/09/25 00:54:17;;;;;;;3.88;2.08;;;;;;;-141.50;100.00;63355.56;4992336;28;20042;-82
2023/09/25 00:57:38;;;;;;;2.75;1.95;;;;;;;-141.50;100.00;63355.56;5020003;28;20500;-84
2023/09/25 01:00:11;;;;;;;3.25;1.88;;;;;;;-141.50;100.00;63355.56;5030897;28;20045;-82
2023/09/25 01:02:44;;;;;;;3.55;2.15;;;;;;;-141.50;100.00;63355.56;4993420;28;20499;-81
2023/09/25 01:05:29;;;;;;;3.92;2.08;;;;;;;-141.50;100.00;63355.56;4956415;28;20046;-82
2023/09/25 01:08:17;;;;;;;4.97;1.70;;;;;;;-141.50;100.00;63355.56;4990310;28;20705;-82
2023/09/25 01:11:03;;;;;;;3.95;2.03;;;;;;;-141.50;100.00;63355.56;5001860;28;20037;-83
2023/09/25 01:13:49;;;;;;;2.78;1.85;;;;;;;-141.50;100.00;63355.56;4973498;28;20055;-84
2023/09/25 01:16:41;;;;;;;3.03;2.00;;;;;;;-141.50;100.00;63355.56;4999642;28;20051;-84
2023/09/25 01:19:19;;;;;;;2.97;2.00;;;;;;;-141.50;100.00;63355.56;4989974;28;20071;-82
2023/09/25 01:21:59;;;;;;;5.00;1.73;;;;;;;-141.50;100.00;63355.56;5021979;28;20100;-81
2023/09/25 01:25:13;;;;;;;3.33;1.95;;;;;;;-141.50;100.00;63355.56;5021232;28;20542;-82
2023/09/25 01:27:47;;;;;;;5.65;2.00;;;;;;;-141.50;100.00;63355.56;4988676;28;20032;-82
2023/09/25 01:30:40;;;;;;;3.50;2.25;;;;;;;-141.50;100.00;63355.56;4985919;28;20055;-83
2023/09/25 01:33:28;;;;;;;3.60;2.00;;;;;;;-141.50;100.00;63355.56;5030900;28;20042;-82
2023/09/25 01:36:09;;;;;;;2.60;2.08;;;;;;;-141.50;100.00;63355.56;4994892;28;20057;-82
2023/09/25 01:38:45;;;;;;;4.35;1.80;;;;;;;-141.50;100.00;63355.56;5006238;28;20048;-83
2023/09/25 01:41:15;;;;;;;3.55;2.28;;;;;;;-141.50;100.00;63355.56;4990413;28;20109;-82
2023/09/25 01:43:52;;;;;;;2.50;1.95;;;;;;;-141.50;100.00;63355.56;5055563;28;20052;-82
2023/09/25 01:46:35;;;;;;;4.30;2.40;;;;;;;-141.50;100.00;63355.56;5026614;28;20053;-83
2023/09/25 01:49:12;;;;;;;3.25;1.85;;;;;;;-141.50;100.00;63355.56;4984516;28;20038;-82
2023/09/25 01:51:50;;;;;;;3.95;2.25;;;;;;;-141.50;100.00;63355.56;5032025;28;20038;-84
2023/09/25 01:54:24;;;;;;;3.65;2.38;;;;;;;-141.50;100.00;63355.56;5010003;28;20055;-84
2023/09/25 01:57:02;;;;;;;3.83;2.55;;;;;;;-141.50;100.00;63355.56;5026312;28;20061;-83
2023/09/25 01:59:37;;;;;;;4.47;2.20;;;;;;;-141.50;100.00;63355.56;5014436;28;20049;-81
2023/09/25 02:02:19;;;;;;;2.95;2.15;;;;;;;-141.50;100.00;63355.56;5027524;28;20099;-83
2023/09/25 02:04:59;;;;;;;5.35;2.42;;;;;;;-141.50;100.00;63355.56;5009208;28;20120;-83
2023/09/25 02:07:41;;;;;;;2.83;1.45;;;;;;;-141.50;100.00;63355.56;5019244;28;20052;-83
2023/09/25 02:10:16;;;;;;;4.47;2.20;;;;;;;-141.50;100.00;63355.56;5022437;28;20052;-83
2023/09/25 02:12:50;;;;;;;3.38;2.03;;;;;;;-141.50;100.00;63355.56;4986988;28;20404;-84
2023/09/25 02:15:19;;;;;;;3.05;1.90;;;;;;;-141.50;100.00;63355.56;5000923;28;20456;-82
2023/09/25 02:18:14;;;;;;;3.05;2.03;;;;;;;-141.50;100.00;63355.56;5030387;28;20132;-83
2023/09/25 02:20:48;;;;;;;4.63;2.55;;;;;;;-141.50;100.00;63355.56;4992168;28;20040;-82
2023/09/25 02:23:24;;;;;;;4.45;2.60;;;;;;;-141.50;100.00;63355.56;4984351;28;20041;-83
2023/09/25 02:26:00;;;;;;;4.40;2.40;;;;;;;-141.50;100.00;63355.56;5001135;28;20118;-83
2023/09/25 02:28:41;;;;;;;4.68;2.60;;;;;;;-141.50;100.00;63355.56;4987124;28;20033;-82
2023/09/25 02:31:24;;;;;;;5.15;2.22;;;;;;;-141.50;100.00;63355.56;5029746;28;20041;-83
2023/09/25 02:34:01;;;;;;;3.90;2.17;;;;;;;-141.50;100.00;63355.56;5028072;28;20047;-83
2023/09/25 02:36:45;;;;;;;4.82;2.13;;;;;;;-141.50;100.00;63355.56;5008417;28;20045;-83
2023/09/25 02:39:31;;;;;;;4.00;1.98;;;;;;;-141.50;100.00;63355.56;4985031;28;20118;-83
2023/09/25 02:42:00;;;;;;;5.95;2.38;;;;;;;-141.50;100.00;63355.56;5027977;28;20053;-83
2023/09/25 02:44:36;;;;;;;5.28;2.28;;;;;;;-141.50;100.00;63355.56;4988053;28;20041;-84
2023/09/25 02:47:04;;;;;;;7.00;3.13;;;;;;;-141.50;100.00;63355.56;4973871;28;20507;-82
2023/09/25 02:49:37;;;;;;;3.90;2.13;;;;;;;-141.50;100.00;63355.56;5010297;28;20057;-84
2023/09/25 02:52:09;;;;;;;4.47;2.47;;;;;;;-141.50;100.00;63355.56;5027998;28;20536;-83
2023/09/25 02:54:40;;;;;;;3.08;2.13;;;;;;;-141.50;100.00;63355.56;4993287;28;20041;-84
2023/09/25 02:57:11;;;;;;;3.40;2.20;;;;;;;-141.50;100.00;63355.56;5000727;28;20038;-83
2023/09/25 02:59:53;;;;;;;3.72;2.28;;;;;;;-141.50;100.00;63355.56;5008878;28;20045;-83
2023/09/25 03:02:33;;;;;;;4.30;2.50;;;;;;;-141.50;100.00;63355.56;5021769;28;20048;-82
2023/09/25 03:05:07;;;;;;;4.07;2.13;;;;;;;-141.50;100.00;63355.56;5041466;28;20041;-83
2023/09/25 03:14:03;;;;;;;4.70;2.40;;;;;;;-141.50;100.00;63355.56;5014325;28;20029;-82
2023/09/25 03:16:38;;;;;;;3.92;2.65;;;;;;;-141.50;100.00;63355.56;5016606;28;20113;-83
2023/09/25 03:19:39;;;;;;;4.13;2.65;;;;;;;-141.50;100.00;63355.56;5043152;28;20046;-85
2023/09/25 03:22:54;;;;;;;5.95;2.55;;;;;;;-141.50;100.00;63355.56;4972690;28;20124;-85
2023/09/25 03:25:39;;;;;;;3.90;2.33;;;;;;;-141.50;100.00;63355.56;4996844;28;20041;-84
2023/09/25 03:28:36;;;;;;;5.50;2.15;;;;;;;-141.50;100.00;63355.56;4994749;28;20332;-82
2023/09/25 03:31:19;;;;;;;5.57;2.47;;;;;;;-141.50;100.00;63355.56;5025429;28;20076;-83
2023/09/25 03:34:01;;;;;;;4.68;2.47;;;;;;;-141.50;100.00;63355.56;4975916;28;20044;-83
2023/09/25 03:36:47;;;;;;;3.25;2.13;;;;;;;-141.50;100.00;63355.56;4981228;28;20044;-82
2023/09/25 03:39:27;;;;;;;5.65;2.47;;;;;;;-141.50;100.00;63355.56;4964971;28;20041;-83
2023/09/25 03:41:58;;;;;;;4.45;2.28;;;;;;;-141.50;100.00;63355.56;4963879;28;20046;-82
2023/09/25 03:44:25;;;;;;;5.70;2.78;;;;;;;-141.50;100.00;63355.56;5029962;28;20069;-82
2023/09/25 03:46:53;;;;;;;5.75;3.20;;;;;;;-141.50;100.00;63355.56;5028289;28;20041;-84
2023/09/25 03:49:20;;;;;;;10.20;3.58;;;;;;;-141.50;100.00;63355.56;5028228;28;20042;-82
2023/09/25 03:51:47;;;;;;;4.97;2.83;;;;;;;-141.50;100.00;63355.56;5010796;28;20053;-84
2023/09/25 03:54:13;;;;;;;4.97;3.22;;;;;;;-141.50;100.00;63355.56;5021770;28;20056;-83
2023/09/25 03:56:40;;;;;;;4.80;2.78;;;;;;;-141.50;100.00;63355.56;5027873;28;20056;-84
2023/09/25 03:59:07;;;;;;;6.03;2.50;;;;;;;-141.50;100.00;63355.56;5028100;28;20049;-83
2023/09/25 04:01:34;;;;;;;3.63;2.58;;;;;;;-141.50;100.00;63355.56;5027963;28;20045;-82
2023/09/25 04:04:01;;;;;;;5.13;2.67;;;;;;;-141.50;100.00;63355.56;5026858;28;20550;-82
2023/09/25 04:06:28;;;;;;;3.85;2.45;;;;;;;-141.50;100.00;63355.56;5027753;28;20045;-83
2023/09/25 04:08:55;;;;;;;6.05;2.65;;;;;;;-141.50;100.00;63355.56;5022646;28;20109;-81
2023/09/25 04:11:22;;;;;;;3.72;2.20;;;;;;;-141.50;100.00;63355.56;5031909;28;20128;-81
2023/09/25 04:13:48;;;;;;;3.85;2.33;;;;;;;-141.50;100.00;63355.56;5032777;28;20473;-82
2023/09/25 04:16:16;;;;;;;4.82;2.83;;;;;;;-141.50;100.00;63355.56;5032571;28;20048;-83
2023/09/25 04:18:43;;;;;;;6.68;2.97;;;;;;;-141.50;100.00;63355.56;5032472;28;20045;-81
2023/09/25 04:21:11;;;;;;;4.90;2.90;;;;;;;-141.50;100.00;63355.56;5032789;28;20056;-81
2023/09/25 04:23:38;;;;;;;4.07;2.22;;;;;;;-141.50;100.00;63355.56;5026329;28;20100;-81
2023/09/25 04:26:06;;;;;;;6.53;2.78;;;;;;;-141.50;100.00;63355.56;5026633;28;20049;-81
2023/09/25 04:28:33;;;;;;;4.38;2.70;;;;;;;-141.50;100.00;63355.56;5026633;28;20053;-82
2023/09/25 04:31:04;;;;;;;6.72;2.45;;;;;;;-141.50;100.00;63355.56;5029055;28;20675;-81
2023/09/25 04:33:32;;;;;;;4.28;3.05;;;;;;;-141.50;100.00;63355.56;5032711;28;20067;-81
2023/09/25 04:36:01;;;;;;;4.30;2.60;;;;;;;-141.50;100.00;63355.56;5023425;28;20594;-81
2023/09/25 04:38:28;;;;;;;4.95;3.03;;;;;;;-141.50;100.00;63355.56;5029065;28;20640;-81
2023/09/25 04:40:55;;;;;;;6.43;3.20;;;;;;;-141.50;100.00;63355.56;5010481;28;20040;-81
2023/09/25 04:43:23;;;;;;;4.88;3.22;;;;;;;-141.50;100.00;63355.56;4995170;28;20128;-81
2023/09/25 04:45:55;;;;;;;7.35;3.33;;;;;;;-141.50;100.00;63355.56;5011435;28;20044;-81
2023/09/25 04:48:22;;;;;;;5.95;3.40;;;;;;;-141.50;100.00;63355.56;5019818;28;20048;-80
2023/09/25 04:50:50;;;;;;;5.18;3.00;;;;;;;-141.50;100.00;63355.56;5010794;28;20054;-80
2023/09/25 04:53:19;;;;;;;6.00;3.13;;;;;;;-141.50;100.00;63355.56;5010530;28;20064;-80
2023/09/25 04:55:46;;;;;;;5.13;3.03;;;;;;;-141.50;100.00;63355.56;5010362;28;20104;-81
2023/09/25 04:58:13;;;;;;;5.40;3.30;;;;;;;-141.50;100.00;63355.56;5010406;28;20069;-79
2023/09/25 05:00:41;;;;;;;5.45;3.40;;;;;;;-141.50;100.00;63355.56;5029580;28;20045;-79
2023/09/25 05:03:08;;;;;;;7.13;3.17;;;;;;;-141.50;100.00;63355.56;5026883;28;20049;-78
2023/09/25 05:05:35;;;;;;;4.93;3.25;;;;;;;-141.50;100.00;63355.56;5026430;28;20459;-79
2023/09/25 05:08:02;;;;;;;7.15;3.40;;;;;;;-141.50;100.00;63355.56;5028822;28;20076;-80
2023/09/25 05:10:29;;;;;;;4.80;3.10;;;;;;;-141.50;100.00;63355.56;5031500;28;20412;-79
2023/09/25 05:12:57;;;;;;;7.10;3.33;;;;;;;-141.50;100.00;63355.56;5031955;28;20049;-80
2023/09/25 05:15:26;;;;;;;5.43;3.20;;;;;;;-141.50;100.00;63355.56;5031786;28;20041;-80
2023/09/25 05:17:53;;;;;;;4.47;2.95;;;;;;;-141.50;100.00;63355.56;5049244;28;20077;-82
2023/09/25 05:20:22;;;;;;;7.55;3.30;;;;;;;-141.50;100.00;63355.56;5031206;28;20045;-81
2023/09/25 05:22:54;;;;;;;6.97;3.78;;;;;;;-141.50;100.00;63355.56;5028236;28;20084;-82
2023/09/25 05:25:22;;;;;;;5.50;3.25;;;;;;;-141.50;100.00;63355.56;5030627;28;20045;-82
2023/09/25 05:27:51;;;;;;;5.95;3.70;;;;;;;-141.50;100.00;63355.56;5032525;28;20049;-79
2023/09/25 05:30:18;;;;;;;7.03;3.80;;;;;;;-141.50;100.00;63355.56;5030613;28;20089;-80
2023/09/25 05:32:48;;;;;;;5.13;3.00;;;;;;;-141.50;100.00;63355.56;5031895;28;20339;-79
2023/09/25 05:35:15;;;;;;;6.57;3.88;;;;;;;-141.50;100.00;63355.56;5040347;28;20037;-81
2023/09/25 05:37:45;;;;;;;7.78;3.22;;;;;;;-141.50;100.00;63355.56;5046370;28;20069;-81
2023/09/25 05:40:13;;;;;;;8.38;3.70;;;;;;;-141.50;100.00;63355.56;5030202;28;20045;-79
2023/09/25 05:42:42;;;;;;;9.27;4.43;;;;;;;-141.50;100.00;63355.56;5029117;28;20064;-80
2023/09/25 05:45:11;;;;;;;8.80;4.53;;;;;;;-141.50;100.00;63355.56;5030672;28;20053;-78
2023/09/25 05:47:38;;;;;;;31.98;13.73;;;;;;;-141.50;100.00;63355.56;5028506;28;20056;-76
2023/09/25 05:50:08;;;;;;;22.67;10.82;;;;;;;-141.50;100.00;63355.56;5028886;28;20099;-76
2023/09/25 05:52:36;;;;;;;10.77;4.80;;;;;;;-141.50;100.00;63355.56;5026807;28;20056;-76
2023/09/25 05:55:05;;;;;;;7.18;4.05;;;;;;;-141.50;100.00;63355.56;5031220;28;20048;-78
2023/09/25 05:57:32;;;;;;;8.13;4.00;;;;;;;-141.50;100.00;63355.56;5029516;28;20041;-76
2023/09/25 05:59:59;;;;;;;6.70;3.83;;;;;;;-141.50;100.00;63355.56;5024496;28;20037;-75
2023/09/25 06:02:33;;;;;;;10.27;5.25;;;;;;;-141.50;100.00;63355.56;5025609;28;20033;-76
2023/09/25 06:05:03;;;;;;;18.38;9.02;;;;;;;-141.50;100.00;63355.56;5027291;28;20044;-76
2023/09/25 06:07:30;;;;;;;8.38;4.72;;;;;;;-141.50;100.00;63355.56;5027201;28;20420;-74
2023/09/25 06:09:57;;;;;;;9.88;5.32;;;;;;;-141.50;100.00;63355.56;5025684;28;20041;-77
2023/09/25 06:12:24;;;;;;;14.85;6.78;;;;;;;-141.50;100.00;63355.56;5030463;28;20049;-76
2023/09/25 06:14:50;;;;;;;7.93;4.35;;;;;;;-141.50;100.00;63355.56;5028316;28;20391;-76
2023/09/25 06:17:17;;;;;;;10.85;4.47;;;;;;;-141.50;100.00;63355.56;5026830;28;20052;-75
2023/09/25 06:19:44;;;;;;;7.88;4.18;;;;;;;-141.50;100.00;63355.56;5026891;28;20049;-74
2023/09/25 06:22:10;;;;;;;9.68;4.72;;;;;;;-141.50;100.00;63355.56;5026982;28;20283;-77
2023/09/25 06:24:38;;;;;;;10.98;5.30;;;;;;;-141.50;100.00;63355.56;5027195;28;20049;-75
2023/09/25 06:27:05;;;;;;;8.35;5.18;;;;;;;-141.50;100.00;63355.56;5026128;28;20096;-76
2023/09/25 06:29:32;;;;;;;10.00;5.70;;;;;;;-141.50;100.00;63355.56;5024865;28;20041;-74
2023/09/25 06:31:58;;;;;;;11.05;6.55;;;;;;;-141.50;100.00;63355.56;5026395;28;20045;-76
2023/09/25 06:34:28;;;;;;;13.88;6.40;;;;;;;-141.50;100.00;63355.56;5027021;28;20499;-75
2023/09/25 06:36:55;;;;;;;12.68;6.88;;;;;;;-141.50;100.00;63355.56;5027522;28;20049;-76
2023/09/25 06:39:23;;;;;;;11.95;6.88;;;;;;;-141.50;100.00;63355.56;5026092;28;21338;-76
2023/09/25 06:41:50;;;;;;;11.40;6.30;;;;;;;-141.50;100.00;63355.56;5026160;28;20129;-74
2023/09/25 06:44:20;;;;;;;14.48;7.47;;;;;;;-141.50;100.00;63355.56;5009091;28;20044;-75
2023/09/25 06:46:47;;;;;;;15.98;7.32;;;;;;;-141.50;100.00;63355.56;5026292;28;20936;-76
2023/09/25 06:49:13;;;;;;;15.07;7.53;;;;;;;-141.50;100.00;63355.56;5024350;28;20048;-75
2023/09/25 06:51:40;;;;;;;17.42;7.65;;;;;;;-141.50;100.00;63355.56;5024093;28;20056;-75
2023/09/25 06:54:08;;;;;;;14.63;7.43;;;;;;;-141.50;100.00;63355.56;5027658;28;20132;-76
2023/09/25 06:56:36;;;;;;;13.70;7.57;;;;;;;-141.50;100.00;63355.56;5025682;28;20049;-76
2023/09/25 06:59:03;;;;;;;18.65;8.13;;;;;;;-141.50;100.00;63355.56;5026408;28;20111;-76
2023/09/25 07:01:30;;;;;;;17.63;7.60;;;;;;;-141.50;100.00;63355.56;5026286;28;20125;-76
2023/09/25 07:03:57;;;;;;;14.60;7.88;;;;;;;-141.50;100.00;63355.56;5027926;28;20041;-76
2023/09/25 07:06:24;;;;;;;18.40;8.23;;;;;;;-141.50;100.00;63355.56;5031464;28;20283;-76
2023/09/25 07:08:51;;;;;;;14.90;8.40;;;;;;;-141.50;100.00;63355.56;5030667;28;20045;-76
2023/09/25 07:11:19;;;;;;;14.80;8.23;;;;;;;-141.50;100.00;63355.56;5028813;28;20052;-76
2023/09/25 07:13:47;;;;;;;14.48;8.07;;;;;;;-141.50;100.00;63355.56;5040928;28;20133;-77
2023/09/25 07:16:14;;;;;;;12.30;6.95;;;;;;;-141.50;100.00;63355.56;5032207;28;20038;-76
2023/09/25 07:18:43;;;;;;;15.00;7.07;;;;;;;-141.50;100.00;63355.56;5028499;28;20037;-77
2023/09/25 07:21:10;;;;;;;12.48;6.72;;;;;;;-141.50;100.00;63355.56;5026828;28;20079;-75
2023/09/25 07:23:37;;;;;;;12.20;6.80;;;;;;;-141.50;100.00;63355.56;5025232;28;20078;-75
2023/09/25 07:26:08;;;;;;;8.73;5.78;;;;;;;-141.50;100.00;63355.56;5024116;28;20045;-74
2023/09/25 07:28:36;;;;;;;9.75;5.80;;;;;;;-141.50;100.00;63355.56;5025774;28;20048;-75
2023/09/25 07:31:05;;;;;;;11.02;5.88;;;;;;;-141.50;100.00;63355.56;5025109;28;20053;-75
2023/09/25 07:33:33;;;;;;;11.10;5.50;;;;;;;-141.50;100.00;63355.56;5025724;28;20475;-76
2023/09/25 07:36:00;;;;;;;10.40;5.60;;;;;;;-141.50;100.00;63355.56;5025723;28;20609;-75
2023/09/25 07:38:31;;;;;;;9.77;5.40;;;;;;;-141.50;100.00;63355.56;5023917;28;20052;-75
2023/09/25 07:40:57;;;;;;;9.30;4.65;;;;;;;-141.50;100.00;63355.56;5021498;28;20315;-74
2023/09/25 07:43:29;;;;;;;10.15;4.70;;;;;;;-141.50;100.00;63355.56;5025035;28;20042;-75
2023/09/25 07:46:12;;;;;;;6.25;4.10;;;;;;;-141.50;100.00;63355.56;5021909;28;20041;-75
2023/09/25 07:48:39;;;;;;;7.80;4.35;;;;;;;-141.50;100.00;63355.56;5024994;28;20423;-75
2023/09/25 07:51:07;;;;;;;6.78;4.18;;;;;;;-141.50;100.00;63355.56;5024924;28;20091;-74
2023/09/25 07:53:34;;;;;;;5.63;3.78;;;;;;;-141.50;100.00;63355.56;5028897;28;20462;-75
2023/09/25 07:56:03;;;;;;;7.72;4.18;;;;;;;-141.50;100.00;63355.56;5027052;28;20034;-75
2023/09/25 07:58:29;;;;;;;9.25;4.43;;;;;;;-141.50;100.00;63355.56;5025280;28;20668;-75
2023/09/25 08:01:04;;;;;;;7.40;3.95;;;;;;;-141.50;100.00;63355.56;5025362;28;20041;-75
2023/09/25 08:03:31;;;;;;;7.93;4.00;;;;;;;-141.50;100.00;63355.56;5023403;28;21511;-75
2023/09/25 08:06:02;;;;;;;5.50;3.42;;;;;;;-141.50;100.00;63355.56;5024765;28;20046;-75
2023/09/25 08:08:29;;;;;;;7.78;3.60;;;;;;;-141.50;100.00;63355.56;5023680;28;20038;-75
2023/09/25 08:10:56;;;;;;;4.50;3.03;;;;;;;-141.50;100.00;63355.56;5025094;28;20071;-75
2023/09/25 08:13:23;;;;;;;6.45;3.17;;;;;;;-141.50;100.00;63355.56;5025314;28;20033;-75
2023/09/25 08:15:51;;;;;;;5.32;3.03;;;;;;;-141.50;100.00;63355.56;5024657;28;20251;-73
2023/09/25 08:18:17;;;;;;;5.13;3.00;;;;;;;-141.50;100.00;63355.56;5019596;28;20049;-75
2023/09/25 08:20:45;;;;;;;4.60;2.90;;;;;;;-141.50;100.00;63355.56;5021486;28;20053;-75
2023/09/25 08:23:12;;;;;;;4.85;2.78;;;;;;;-141.50;100.00;63355.56;5023022;28;20053;-74
2023/09/25 08:25:39;;;;;;;4.32;2.50;;;;;;;-141.50;100.00;63355.56;5023224;28;20045;-74
2023/09/25 08:28:06;;;;;;;5.25;2.60;;;;;;;-141.50;100.00;63355.56;5040723;28;20057;-75
2023/09/25 08:30:32;;;;;;;4.97;2.40;;;;;;;-141.50;100.00;63355.56;5024317;28;20415;-75
2023/09/25 08:32:59;;;;;;;4.72;2.58;;;;;;;-141.50;100.00;63355.56;5023604;28;20045;-75
2023/09/25 08:35:26;;;;;;;5.43;2.58;;;;;;;-141.50;100.00;63355.56;5024877;28;20125;-73
2023/09/25 08:37:53;;;;;;;4.65;2.50;;;;;;;-141.50;100.00;63355.56;5006327;28;20048;-75
2023/09/25 08:40:20;;;;;;;4.53;2.60;;;;;;;-141.50;100.00;63355.56;5024880;28;20579;-74
2023/09/25 08:42:48;;;;;;;3.92;1.88;;;;;;;-141.50;100.00;63355.56;5023397;28;20119;-74
2023/09/25 08:45:22;;;;;;;4.53;2.13;;;;;;;-141.50;100.00;63355.56;5020371;28;20053;-75
2023/09/25 08:47:49;;;;;;;6.97;2.50;;;;;;;-141.50;100.00;63355.56;5024597;28;20061;-75
2023/09/25 08:50:17;;;;;;;7.25;2.60;;;;;;;-141.50;100.00;63355.56;5018638;28;20072;-74
2023/09/25 08:52:44;;;;;;;3.42;2.00;;;;;;;-141.50;100.00;63355.56;5030769;28;20049;-74
2023/09/25 08:55:12;;;;;;;4.68;2.08;;;;;;;-141.50;100.00;63355.56;5026715;28;20061;-74
2023/09/25 08:57:39;;;;;;;3.58;2.20;;;;;;;-141.50;100.00;63355.56;5027802;28;20073;-74
2023/09/25 09:00:14;;;;;;;4.07;2.15;;;;;;;-141.50;100.00;63355.56;5027928;28;20407;-74
2023/09/25 09:02:43;;;;;;;5.13;2.35;;;;;;;-141.50;100.00;63355.56;5027025;28;20037;-75
2023/09/25 09:05:12;;;;;;;5.53;2.13;;;;;;;-141.50;100.00;63355.56;5043442;28;20049;-74
2023/09/25 09:08:09;;;;;;;4.10;2.28;;;;;;;-141.50;100.00;63355.56;5024922;28;20499;-75
2023/09/25 09:10:37;;;;;;;3.38;2.08;;;;;;;-141.50;100.00;63355.56;5023705;28;20650;-74
2023/09/25 09:13:10;;;;;;;4.00;1.95;;;;;;;-141.50;100.00;63355.56;5024222;28;20526;-74
2023/09/25 09:15:39;;;;;;;5.80;2.13;;;;;;;-141.50;100.00;63355.56;5026878;28;21750;-75
2023/09/25 09:18:21;;;;;;;3.60;1.95;;;;;;;-141.50;100.00;63355.56;5026117;28;20073;-75
2023/09/25 09:20:54;;;;;;;3.65;1.80;;;;;;;-141.50;100.00;63355.56;5009337;28;20126;-75
2023/09/25 09:23:40;;;;;;;4.38;1.83;;;;;;;-141.50;100.00;63355.56;5009359;28;20511;-75
2023/09/25 09:26:07;;;;;;;4.90;2.10;;;;;;;-141.50;100.00;63355.56;5026611;28;20047;-75
2023/09/25 09:28:34;;;;;;;2.70;1.38;;;;;;;-141.50;100.00;63355.56;5027805;28;20057;-75
2023/09/25 09:31:03;;;;;;;2.55;1.90;;;;;;;-141.50;100.00;63355.56;5027617;28;20061;-75
2023/09/25 09:33:30;;;;;;;3.42;1.45;;;;;;;-141.50;100.00;63355.56;5026076;28;20037;-75
2023/09/25 09:35:57;;;;;;;3.92;1.73;;;;;;;-141.50;100.00;63355.56;5025276;28;20037;-74
2023/09/25 09:38:24;;;;;;;3.42;1.95;;;;;;;-141.50;100.00;63355.56;5027678;28;20041;-75
2023/09/25 09:40:51;;;;;;;3.40;1.55;;;;;;;-141.50;100.00;63355.56;5025519;28;20308;-75
2023/09/25 09:43:18;;;;;;;2.30;1.58;;;;;;;-141.50;100.00;63355.56;5027412;28;20423;-74
2023/09/25 09:45:49;;;;;;;2.90;1.55;;;;;;;-141.50;100.00;63355.56;5028082;28;20045;-74
2023/09/25 09:48:19;;;;;;;2.95;1.60;;;;;;;-141.50;100.00;63355.56;5021294;28;20332;-75
2023/09/25 09:50:49;;;;;;;2.55;1.50;;;;;;;-141.50;100.00;63355.56;5033104;28;20699;-76
2023/09/25 09:53:17;;;;;;;2.20;1.27;;;;;;;-141.50;100.00;63355.56;5021598;28;20042;-74
2023/09/25 09:55:45;;;;;;;2.63;1.50;;;;;;;-141.50;100.00;63355.56;5024521;28;20042;-74
2023/09/25 09:58:14;;;;;;;1.90;1.38;;;;;;;-141.50;100.00;63355.56;5027581;28;20079;-75
2023/09/25 10:00:41;;;;;;;4.78;1.88;;;;;;;-141.50;100.00;63355.56;5024065;28;20038;-79
2023/09/25 10:03:09;;;;;;;2.90;1.38;;;;;;;-141.50;100.00;63355.56;5021896;28;20049;-76
2023/09/25 10:05:47;;;;;;;3.67;1.38;;;;;;;-141.50;100.00;63355.56;5025410;28;20095;-75
2023/09/25 10:08:15;;;;;;;4.07;1.35;;;;;;;-141.50;100.00;63355.56;5024646;28;20049;-75
2023/09/25 10:10:43;;;;;;;1.60;1.10;;;;;;;-141.50;100.00;63355.56;5027854;28;20041;-75
2023/09/25 10:13:21;;;;;;;2.15;1.10;;;;;;;-141.50;100.00;63355.56;5028982;28;20128;-75
2023/09/25 10:16:06;;;;;;;2.80;1.38;;;;;;;-141.50;100.00;63355.56;5025070;28;20357;-76
2023/09/25 10:18:33;;;;;;;2.80;1.35;;;;;;;-141.50;100.00;63355.56;5026578;28;21499;-76
2023/09/25 10:21:16;;;;;;;3.80;1.33;;;;;;;-141.50;100.00;63355.56;5006637;28;20048;-75
2023/09/25 10:23:47;;;;;;;2.35;1.17;;;;;;;-141.50;100.00;63355.56;5025438;28;20239;-75
2023/09/25 10:26:24;;;;;;;2.13;1.25;;;;;;;-141.50;100.00;63355.56;5026575;28;20709;-76
2023/09/25 10:29:14;;;;;;;3.22;1.38;;;;;;;-141.50;100.00;63355.56;5024025;28;20395;-74
2023/09/25 10:31:47;;;;;;;2.55;1.10;;;;;;;-141.50;100.00;63355.56;5026370;28;20160;-76
2023/09/25 10:34:16;;;;;;;1.67;1.05;;;;;;;-141.50;100.00;63355.56;5025472;28;20419;-75
2023/09/25 10:36:45;;;;;;;1.70;1.17;;;;;;;-141.50;100.00;63355.56;5026601;28;20045;-76
2023/09/25 10:39:16;;;;;;;3.33;1.10;;;;;;;-141.50;100.00;63355.56;5031583;28;20068;-73
2023/09/25 10:41:45;;;;;;;3.03;1.00;;;;;;;-141.50;100.00;63355.56;5032581;28;20041;-76
2023/09/25 10:44:13;;;;;;;2.55;1.13;;;;;;;-141.50;100.00;63355.56;5024883;28;20049;-75
2023/09/25 10:46:40;;;;;;;2.38;1.27;;;;;;;-141.50;100.00;63355.56;5026289;28;20511;-76
2023/09/25 10:49:08;;;;;;;1.77;1.00;;;;;;;-141.50;100.00;63355.56;5026095;28;20149;-75
2023/09/25 10:51:36;;;;;;;2.58;1.20;;;;;;;-141.50;100.00;63355.56;5021266;28;20471;-76
2023/09/25 10:54:03;;;;;;;2.22;1.27;;;;;;;-141.50;100.00;63355.56;5026088;28;20073;-74
2023/09/25 10:56:30;;;;;;;1.23;0.90;;;;;;;-141.50;100.00;63355.56;5026439;28;20042;-75
2023/09/25 10:58:57;;;;;;;1.77;1.23;;;;;;;-141.50;100.00;63355.56;5024499;28;20030;-75
2023/09/25 11:01:27;;;;;;;2.58;1.08;;;;;;;-141.50;100.00;63355.56;5024044;28;20053;-75
2023/09/25 11:03:57;;;;;;;2.22;0.90;;;;;;;-141.50;100.00;63355.56;5025835;28;20052;-75
2023/09/25 11:06:25;;;;;;;1.10;0.80;;;;;;;-141.50;100.00;63355.56;5022675;28;20049;-76
2023/09/25 11:09:05;;;;;;;3.65;0.90;;;;;;;-141.50;100.00;63355.56;5021070;28;20049;-76
2023/09/25 11:11:32;;;;;;;1.40;0.85;;;;;;;-141.50;100.00;63355.56;5021656;28;20784;-75
2023/09/25 11:13:59;;;;;;;4.30;0.90;;;;;;;-141.50;100.00;63355.56;5024197;28;20135;-75
2023/09/25 11:16:27;;;;;;;1.95;1.00;;;;;;;-141.50;100.00;63355.56;5024822;28;20049;-75
2023/09/25 11:19:10;;;;;;;1.23;0.85;;;;;;;-141.50;100.00;63355.56;5026208;28;20053;-75
2023/09/25 11:21:41;;;;;;;2.45;0.95;;;;;;;-141.50;100.00;63355.56;5023980;28;20232;-75
2023/09/25 11:24:09;;;;;;;4.00;1.20;;;;;;;-141.50;100.00;63355.56;5025951;28;20526;-75
2023/09/25 11:26:41;;;;;;;2.00;0.80;;;;;;;-141.50;100.00;63355.56;5028941;28;20448;-75
2023/09/25 11:29:09;;;;;;;1.08;0.73;;;;;;;-141.50;100.00;63355.56;5026053;28;20045;-75
2023/09/25 11:31:36;;;;;;;1.13;0.80;;;;;;;-141.50;100.00;63355.56;5023638;28;20634;-74
2023/09/25 11:34:23;;;;;;;2.22;1.00;;;;;;;-141.50;100.00;63355.56;5019401;28;21221;-76
2023/09/25 11:36:50;;;;;;;2.22;0.70;;;;;;;-141.50;100.00;63355.56;5025194;28;20148;-74